Latest Weather Observations for Mount Lofty

IDS60801

Issued at 10:01 am CST Monday 21 August 2017 (issued every 30 minutes, with the page automatically refreshed every 10 minutes)

About weather observations | Map of weather stations | Latest weather observations for SA | Other Formats
Station Details ID: 023842 Name: MOUNT LOFTY Lat: -34.98 Lon: 138.71 Height: 685.0 m
Data from the previous 72 hours. | See also: Recent months at Mount Lofty
Date/Time
CST
Temp
°C
App
Temp
°C
Dew
Point
°C
Rel
Hum
%
Delta-T
°C
Wind Press
QNH
hPa
Press
MSL
hPa
Rain since
9am
mm
Dir  Spd
km/h
Gust
km/h
Spd
kts
Gust
kts
21/10:00am 5.6 2.1 5.3 98 0.1 NW 13 26 7 14 - - 1.8
21/09:30am 5.3 1.3 5.0 98 0.1 NNW 15 28 8 15 - - 0.8
21/09:00am 5.1 1.5 4.8 98 0.1 NW 13 28 7 15 - - 17.8
21/08:30am 4.8 0.7 4.4 97 0.2 NNW 15 24 8 13 - - 17.2
21/08:00am 4.4 -0.1 4.0 97 0.2 NNW 17 28 9 15 - - 17.2
21/07:30am 4.1 -0.5 3.5 96 0.3 NNW 17 30 9 16 - - 16.4
21/07:00am 4.0 0.0 3.0 93 0.4 N 13 24 7 13 - - 16.4
21/06:30am 4.2 -0.5 3.2 93 0.4 N 17 30 9 16 - - 16.2
21/06:00am 4.3 -0.7 3.6 95 0.3 NNW 19 32 10 17 - - 15.2
21/05:30am 3.9 -2.2 2.6 91 0.5 NNW 24 41 13 22 - - 13.8
21/05:13am 4.3 -2.7 2.0 85 1.0 NNW 28 56 15 30 - - 13.4
21/05:00am 4.4 -1.8 1.9 84 1.0 NNW 24 43 13 23 - - 13.0
21/04:30am 4.4 -1.1 1.9 84 1.0 NW 20 35 11 19 - - 12.2
21/04:00am 5.1 -0.5 1.2 76 1.6 NW 20 39 11 21 - - 10.8
21/03:30am 6.8 -0.2 -0.6 59 3.0 NW 26 46 14 25 - - 10.4
21/03:24am 6.8 -0.6 -0.6 59 3.0 NW 28 48 15 26 - - 10.4
21/03:00am 7.7 1.4 -1.3 53 3.6 NNW 22 43 12 23 - - 10.4
21/02:37am 7.6 0.1 -1.6 52 3.6 NNW 28 50 15 27 - - 10.4
21/02:30am 7.8 0.7 -1.4 52 3.6 NNW 26 50 14 27 - - 10.4
21/02:10am 7.5 0.0 -1.4 53 3.5 NNW 28 48 15 26 - - 10.4
21/02:00am 7.2 0.1 -1.2 55 3.3 NNW 26 44 14 24 - - 10.4
21/01:30am 6.5 0.6 -0.5 61 2.8 NNW 20 37 11 20 - - 10.4
21/01:00am 6.3 0.1 0.0 64 2.5 NNW 22 43 12 23 - - 10.4
21/12:30am 6.3 0.6 0.8 68 2.3 NNW 20 33 11 18 - - 10.4
21/12:00am 5.8 0.2 1.2 72 1.9 NNW 20 35 11 19 - - 10.4
 
Date/Time
CST
Temp
°C
App
Temp
°C
Dew
Point
°C
Rel
Hum
%
Delta-T
°C
Wind Press
QNH
hPa
Press
MSL
hPa
Rain since
9am
mm
Dir  Spd
km/h
Gust
km/h
Spd
kts
Gust
kts
20/11:30pm 5.2 0.2 1.5 77 1.5 N 17 32 9 17 - - 10.4
20/11:00pm 5.3 0.7 1.4 76 1.6 N 15 28 8 15 - - 10.4
20/10:30pm 5.2 -0.1 1.9 79 1.4 N 19 33 10 18 - - 10.4
20/10:00pm 4.9 -0.4 2.9 87 0.9 NNW 20 37 11 20 - - 10.4
20/09:30pm 4.7 -0.5 2.7 87 0.8 NNW 19 44 10 24 - - 10.4
20/09:00pm 5.1 -0.5 3.3 88 0.8 NNW 22 41 12 22 - - 10.0
20/08:30pm 4.9 0.7 3.7 92 0.5 NNE 15 35 8 19 - - 10.0
20/08:00pm 4.3 0.0 3.4 94 0.4 NE 15 26 8 14 - - 9.4
20/07:30pm 3.6 -0.4 2.9 95 0.3 ENE 13 28 7 15 - - 9.2
20/07:00pm 3.3 -0.8 2.4 94 0.4 NE 13 24 7 13 - - 8.6
20/06:30pm 3.6 -0.8 2.9 95 0.3 NNE 15 30 8 16 - - 7.6
20/06:00pm 4.2 0.3 3.6 96 0.3 N 13 26 7 14 - - 4.4
20/05:30pm 4.6 1.1 3.6 93 0.4 NW 11 20 6 11 - - 2.4
20/05:00pm 5.5 1.3 1.8 77 1.5 N 13 24 7 13 - - 0.8
20/04:30pm 6.8 3.3 1.3 68 2.3 NNE 9 20 5 11 - - 0.0
20/04:00pm 7.2 3.3 0.9 64 2.6 NE 11 20 6 11 - - 0.0
20/03:30pm 7.2 3.2 0.6 63 2.7 NE 11 28 6 15 - - 0.0
20/03:00pm 7.0 3.0 0.7 64 2.6 NE 11 30 6 16 - - 0.0
20/02:30pm 7.1 3.1 0.8 64 2.6 NE 11 24 6 13 - - 0.0
20/02:00pm 7.1 2.8 1.0 65 2.5 NNE 13 26 7 14 - - 0.0
20/01:30pm 7.2 3.3 1.1 65 2.6 NE 11 26 6 14 - - 0.0
20/01:00pm 7.0 2.7 0.7 64 2.6 NNE 13 33 7 18 - - 0.0
20/12:30pm 7.4 3.1 1.0 64 2.7 NNE 13 24 7 13 - - 0.0
20/12:00pm 8.5 3.7 0.5 57 3.3 N 15 30 8 16 - - 0.0
20/11:30am 8.6 5.3 2.2 64 2.8 NNE 9 24 5 13 - - 0.0
20/11:00am 8.2 4.8 1.6 63 2.8 NE 9 22 5 12 - - 0.0
20/10:30am 8.1 4.7 1.9 65 2.7 NE 9 19 5 10 - - 0.0
20/10:00am 7.9 4.0 1.3 63 2.8 NE 11 22 6 12 - - 0.0
20/09:30am 6.9 2.9 0.6 64 2.6 ENE 11 35 6 19 - - 0.0
20/09:00am 6.4 2.3 0.1 64 2.6 NE 11 28 6 15 - - 0.0
20/08:30am 5.8 1.7 -0.3 65 2.4 ENE 11 28 6 15 - - 0.0
20/08:00am 4.6 0.5 -0.4 70 2.0 E 11 22 6 12 - - 0.0
20/07:30am 4.6 0.1 -0.6 69 2.0 NE 13 22 7 12 - - 0.0
20/07:00am 3.9 0.2 -0.3 74 1.6 E 9 19 5 10 - - 0.0
20/06:30am 3.8 0.0 -0.4 74 1.6 E 9 19 5 10 - - 0.0
20/06:00am 3.6 0.2 -0.4 75 1.6 E 7 15 4 8 - - 0.0
20/05:30am 3.3 -0.1 -0.7 75 1.5 E 7 17 4 9 - - 0.0
20/05:00am 3.7 0.3 -0.9 72 1.8 E 7 15 4 8 - - 0.0
20/04:30am 3.8 0.4 -0.6 73 1.7 ENE 7 19 4 10 - - 0.0
20/04:00am 3.5 0.3 -0.3 76 1.5 E 6 11 3 6 - - 0.0
20/03:30am 3.7 0.6 0.1 77 1.4 E 6 17 3 9 - - 0.0
20/03:00am 3.7 0.6 0.4 79 1.3 E 6 13 3 7 - - 0.0
20/02:30am 3.8 0.8 0.8 81 1.2 E 6 11 3 6 - - 0.0
20/02:00am 3.5 0.6 1.5 87 0.8 ESE 6 11 3 6 - - 0.0
20/01:30am 3.3 0.5 2.0 91 0.5 E 6 7 3 4 - - 0.0
20/01:00am 2.9 0.4 1.7 92 0.5 ESE 4 9 2 5 - - 0.0
20/12:30am 3.0 0.2 2.0 93 0.4 ESE 6 9 3 5 - - 0.0
20/12:00am 3.0 0.2 2.1 94 0.4 ESE 6 9 3 5 - - 0.0
 
Date/Time
CST
Temp
°C
App
Temp
°C
Dew
Point
°C
Rel
Hum
%
Delta-T
°C
Wind Press
QNH
hPa
Press
MSL
hPa
Rain since
9am
mm
Dir  Spd
km/h
Gust
km/h
Spd
kts
Gust
kts
19/11:30pm 3.1 0.3 2.2 94 0.4 ESE 6 9 3 5 - - 0.0
19/11:00pm 3.2 0.4 2.3 94 0.4 ESE 6 7 3 4 - - 0.0
19/10:30pm 3.3 0.3 2.1 92 0.5 ESE 7 11 4 6 - - 0.0
19/10:00pm 3.2 0.2 2.0 92 0.5 ESE 7 11 4 6 - - 0.0
19/09:30pm 3.3 0.3 2.0 91 0.5 ESE 7 11 4 6 - - 0.0
19/09:00pm 3.5 0.7 1.9 89 0.7 ESE 6 9 3 5 - - 0.0
19/08:30pm 3.5 0.6 1.7 88 0.7 ESE 6 9 3 5 - - 0.0
19/08:00pm 3.8 0.9 1.7 86 0.9 ESE 6 9 3 5 - - 0.0
19/07:30pm 4.1 1.1 1.8 85 0.9 ESE 7 9 4 5 - - 0.0
19/07:00pm 4.2 1.4 1.9 85 1.0 ESE 6 9 3 5 - - 0.0
19/06:30pm 4.8 2.4 2.0 82 1.2 ESE 4 9 2 5 - - 0.0
19/06:00pm 5.3 2.9 2.1 80 1.3 ESE 4 6 2 3 - - 0.0
19/05:30pm 6.5 4.2 2.8 77 1.6 ESE 4 6 2 3 - - 0.0
19/05:00pm 6.1 3.6 1.8 74 1.8 ESE 4 6 2 3 - - 0.0
19/04:30pm 7.3 4.9 2.0 69 2.3 ESE 4 7 2 4 - - 0.0
19/04:00pm 9.2 6.5 2.5 63 3.0 E 6 11 3 6 - - 0.0
19/03:30pm 9.2 6.6 3.2 66 2.7 ESE 6 11 3 6 - - 0.0
19/03:00pm 9.8 7.7 3.8 66 2.7 E 4 9 2 5 - - 0.0
19/02:30pm 8.0 5.4 3.1 71 2.2 ESE 6 13 3 7 - - 0.0
19/02:00pm 9.6 7.6 4.4 70 2.4 ENE 4 7 2 4 - - 0.0
19/01:30pm 9.5 6.7 5.3 75 2.0 ESE 9 15 5 8 - - 0.0
19/01:00pm 9.5 7.6 6.6 82 1.4 E 6 17 3 9 - - 0.0
19/12:30pm 7.3 5.0 4.8 84 1.1 ESE 6 11 3 6 - - 0.0
19/12:00pm 8.4 6.6 3.5 71 2.2 SSW 2 6 1 3 - - 0.0
19/11:30am 7.3 5.5 3.5 77 1.7 SW 2 6 1 3 - - 0.0
19/11:00am 6.7 4.5 3.3 79 1.5 SE 4 7 2 4 - - 0.0
19/10:30am 7.6 5.2 2.3 69 2.3 SSW 4 9 2 5 - - 0.0
19/10:00am 6.2 3.9 2.8 79 1.5 S 4 13 2 7 - - 0.0
19/09:30am 6.2 3.6 3.2 81 1.3 SSW 6 13 3 7 - - 0.0
19/09:00am 6.2 3.6 3.0 80 1.4 SSW 6 11 3 6 - - 5.4
19/08:30am 5.5 2.7 1.8 77 1.5 SSW 6 11 3 6 - - 5.4
19/08:00am 4.6 1.9 2.6 87 0.8 SSW 6 9 3 5 - - 5.4
19/07:30am 4.3 1.7 3.0 91 0.6 SSW 6 11 3 6 - - 5.2
19/07:00am 4.1 1.4 2.5 89 0.7 SSW 6 9 3 5 - - 5.2
19/06:30am 3.9 1.1 2.9 93 0.4 SW 7 13 4 7 - - 5.2
19/06:00am 4.0 1.2 3.3 95 0.3 SW 7 15 4 8 - - 5.2
19/05:30am 3.9 1.1 2.9 93 0.4 WSW 7 13 4 7 - - 5.2
19/05:00am 3.9 1.0 2.7 92 0.5 WSW 7 17 4 9 - - 5.2
19/04:30am 3.8 0.8 2.2 89 0.7 SW 7 11 4 6 - - 5.2
19/04:00am 3.9 1.2 2.7 92 0.5 SW 6 11 3 6 - - 5.2
19/03:30am 3.8 1.1 2.5 91 0.5 SW 6 9 3 5 - - 5.2
19/03:00am 4.0 1.3 2.7 91 0.5 SSW 6 13 3 7 - - 5.2
19/02:30am 4.1 1.2 2.8 91 0.6 SSW 7 17 4 9 - - 5.2
19/02:00am 4.1 1.3 3.1 93 0.4 SSW 7 13 4 7 - - 5.2
19/01:30am 4.0 1.1 2.8 92 0.5 SW 7 13 4 7 - - 5.2
19/01:00am 4.3 1.6 3.6 95 0.3 SW 7 17 4 9 - - 5.2
19/12:30am 4.5 1.8 3.9 96 0.3 SW 7 17 4 9 - - 5.2
19/12:00am 4.7 2.1 4.0 95 0.3 WSW 7 17 4 9 - - 5.2
 
Date/Time
CST
Temp
°C
App
Temp
°C
Dew
Point
°C
Rel
Hum
%
Delta-T
°C
Wind Press
QNH
hPa
Press
MSL
hPa
Rain since
9am
mm
Dir  Spd
km/h
Gust
km/h
Spd
kts
Gust
kts
18/11:30pm 4.6 1.5 3.7 94 0.4 WSW 9 19 5 10 - - 5.2
18/11:00pm 4.8 1.7 3.6 92 0.5 W 9 19 5 10 - - 5.2
18/10:30pm 4.7 1.6 3.7 93 0.4 W 9 20 5 11 - - 5.2
18/10:00pm 4.7 1.6 3.8 94 0.4 W 9 19 5 10 - - 5.2
18/09:30pm 4.6 1.4 3.1 90 0.6 W 9 20 5 11 - - 5.2
18/09:00pm 4.8 0.4 2.7 86 0.9 WSW 15 32 8 17 - - 5.2
18/08:30pm 4.9 1.1 3.7 92 0.5 W 13 30 7 16 - - 5.2
18/08:00pm 4.8 0.9 3.3 90 0.6 W 13 26 7 14 - - 5.2
18/07:30pm 4.8 1.3 3.6 92 0.5 WSW 11 22 6 12 - - 5.2
18/07:00pm 4.7 1.6 3.5 92 0.5 WSW 9 22 5 12 - - 5.2
18/06:30pm 4.9 1.6 4.3 96 0.3 W 11 19 6 10 - - 5.2
18/06:00pm 5.3 2.8 4.7 96 0.3 W 7 17 4 9 - - 5.2
18/05:30pm 5.0 2.0 4.1 94 0.4 WSW 9 17 5 9 - - 5.0
18/05:00pm 5.8 2.8 4.1 89 0.8 WSW 9 20 5 11 - - 1.4
18/04:30pm 6.9 3.4 3.3 78 1.6 W 11 24 6 13 - - 0.4
18/04:00pm 7.2 3.8 4.2 81 1.4 W 11 22 6 12 - - 0.4
18/03:30pm 6.7 3.2 3.5 80 1.4 W 11 24 6 13 - - 0.4
18/03:00pm 6.7 2.9 4.0 83 1.2 W 13 35 7 19 - - 0.4
18/02:30pm 6.8 3.2 4.8 87 0.9 W 13 24 7 13 - - 0.4
18/02:00pm 5.8 2.0 3.8 87 0.9 W 13 35 7 19 - - 0.2
18/01:30pm 6.3 2.3 2.9 79 1.5 W 13 24 7 13 - - 0.0
18/01:00pm 6.7 2.4 3.5 80 1.4 W 15 28 8 15 - - 0.0
18/12:30pm 4.9 -0.2 3.2 89 0.7 W 19 46 10 25 - - 0.0
18/12:00pm 6.6 1.3 3.0 78 1.6 W 20 43 11 23 - - 0.0
18/11:30am 6.4 1.2 2.3 75 1.8 W 19 33 10 18 - - 0.0
18/11:00am 6.2 1.0 2.7 78 1.5 W 19 39 10 21 - - 0.0
18/10:30am 6.1 0.7 2.7 79 1.5 W 20 43 11 23 - - 0.0

Other Formats:

Comma delimited format used in spreadsheet applications
http://www.bom.gov.au/fwo/IDS60801/IDS60801.95678.axf

JavaScript Object Notation format (JSON) in row-major order
http://www.bom.gov.au/fwo/IDS60801/IDS60801.95678.json